createdAt,value
2023-01-15T00:57:19.468Z,-1.19
2023-01-15T00:59:47.033Z,-1.15
2023-01-15T01:02:14.109Z,-1.16
2023-01-15T01:04:41.723Z,-1.17
2023-01-15T01:07:08.787Z,-1.18
2023-01-15T01:09:35.967Z,-1.21
2023-01-15T01:12:03.270Z,-1.22
2023-01-15T01:14:30.279Z,-1.24
2023-01-15T01:16:57.208Z,-1.25
2023-01-15T01:19:24.416Z,-1.24
2023-01-15T01:21:51.671Z,-1.24
2023-01-15T01:24:23.325Z,-1.24
2023-01-15T01:26:51.725Z,-1.24
2023-01-15T01:29:20.979Z,-1.23
2023-01-15T01:31:47.979Z,-1.20
2023-01-15T01:34:15.066Z,-1.20
2023-01-15T01:36:42.862Z,-1.19
2023-01-15T01:39:14.415Z,-1.18
2023-01-15T01:41:42.136Z,-1.19
2023-01-15T01:44:37.527Z,-1.20
2023-01-15T01:47:07.108Z,-1.19
2023-01-15T01:49:34.184Z,-1.18
2023-01-15T01:52:03.919Z,-1.17
2023-01-15T01:54:31.339Z,-1.17
2023-01-15T01:56:58.598Z,-1.16
2023-01-15T01:59:25.536Z,-1.17
2023-01-15T02:01:53.404Z,-1.19
2023-01-15T02:04:21.458Z,-1.21
2023-01-15T02:06:48.427Z,-1.22
2023-01-15T02:09:15.611Z,-1.22
2023-01-15T02:11:42.574Z,-1.21
2023-01-15T02:14:18.615Z,-1.19
2023-01-15T02:16:49.770Z,-1.20
2023-01-15T02:19:38.481Z,-1.20
2023-01-15T02:22:38.504Z,-1.20
2023-01-15T02:25:16.876Z,-1.19
2023-01-15T02:27:49.825Z,-1.18
2023-01-15T02:30:23.167Z,-1.17
2023-01-15T02:33:00.567Z,-1.17
2023-01-15T02:35:31.401Z,-1.17
2023-01-15T02:38:00.432Z,-1.17
2023-01-15T02:40:27.596Z,-1.16
2023-01-15T02:42:54.936Z,-1.16
2023-01-15T02:45:30.740Z,-1.14
2023-01-15T02:48:19.991Z,-1.12
2023-01-15T02:50:55.933Z,-1.11
2023-01-15T02:53:25.523Z,-1.09
2023-01-15T02:55:55.809Z,-1.10
2023-01-15T02:58:28.665Z,-1.10
2023-01-15T03:00:56.976Z,-1.10
2023-01-15T03:03:42.487Z,-1.09
2023-01-15T03:06:37.422Z,-1.09
2023-01-15T03:09:05.453Z,-1.10
2023-01-15T03:11:34.488Z,-1.10
2023-01-15T03:14:04.698Z,-1.11
2023-01-15T03:16:59.931Z,-1.13
2023-01-15T03:19:52.494Z,-1.14
2023-01-15T03:22:23.712Z,-1.15
2023-01-15T03:24:55.877Z,-1.16
2023-01-15T03:27:23.033Z,-1.17
2023-01-15T03:30:20.681Z,-1.17
2023-01-15T03:32:49.358Z,-1.15
2023-01-15T03:35:56.306Z,-1.14
2023-01-15T03:38:47.025Z,-1.16
2023-01-15T03:42:04.455Z,-1.18
2023-01-15T03:44:53.006Z,-1.17
2023-01-15T03:47:27.251Z,-1.19
2023-01-15T03:49:58.281Z,-1.24
2023-01-15T03:53:04.707Z,-1.25
2023-01-15T03:56:08.203Z,-1.25
2023-01-15T03:58:51.375Z,-1.25
2023-01-15T04:01:24.896Z,-1.25
2023-01-15T04:03:52.139Z,-1.25
2023-01-15T04:06:22.173Z,-1.26
2023-01-15T04:08:49.145Z,-1.28
2023-01-15T04:11:22.687Z,-1.30
2023-01-15T04:13:51.808Z,-1.30
2023-01-15T04:16:38.985Z,-1.30
2023-01-15T04:19:06.703Z,-1.30
2023-01-15T04:21:35.720Z,-1.29
2023-01-15T04:24:02.646Z,-1.28
2023-01-15T04:26:29.707Z,-1.29
2023-01-15T04:28:56.904Z,-1.31
2023-01-15T04:31:23.969Z,-1.33
2023-01-15T04:33:50.933Z,-1.33
2023-01-15T04:36:17.931Z,-1.34
2023-01-15T04:38:45.101Z,-1.35
2023-01-15T04:41:30.562Z,-1.35
2023-01-15T04:44:06.678Z,-1.36
2023-01-15T04:46:38.633Z,-1.36
2023-01-15T04:49:06.640Z,-1.38
2023-01-15T04:51:33.640Z,-1.38
2023-01-15T04:54:03.069Z,-1.37
2023-01-15T04:56:30.074Z,-1.37
2023-01-15T04:59:00.276Z,-1.36
2023-01-15T05:01:27.329Z,-1.35
2023-01-15T05:03:54.280Z,-1.34
2023-01-15T05:06:21.333Z,-1.35
2023-01-15T05:08:48.326Z,-1.38
2023-01-15T05:11:15.311Z,-1.41
2023-01-15T05:13:42.273Z,-1.41
2023-01-15T05:16:17.306Z,-1.40
2023-01-15T05:18:44.367Z,-1.40
2023-01-15T05:21:25.196Z,-1.40
2023-01-15T05:23:54.103Z,-1.41
2023-01-15T05:26:21.671Z,-1.43
2023-01-15T05:28:48.858Z,-1.43
2023-01-15T05:31:17.148Z,-1.42
2023-01-15T05:33:44.546Z,-1.44
2023-01-15T05:36:12.896Z,-1.45
2023-01-15T05:38:39.953Z,-1.44
2023-01-15T05:41:26.419Z,-1.43
2023-01-15T05:43:53.663Z,-1.42
2023-01-15T05:46:20.728Z,-1.40
2023-01-15T05:48:47.735Z,-1.40
2023-01-15T05:51:14.823Z,-1.41
2023-01-15T05:53:41.836Z,-1.40
2023-01-15T05:56:08.884Z,-1.40
2023-01-15T05:58:35.818Z,-1.40
2023-01-15T06:01:07.456Z,-1.42
2023-01-15T06:03:34.793Z,-1.42
2023-01-15T06:06:01.797Z,-1.41
2023-01-15T06:08:28.775Z,-1.41
2023-01-15T06:10:55.809Z,-1.41
2023-01-15T06:13:22.992Z,-1.41
2023-01-15T06:15:50.041Z,-1.42
2023-01-15T06:18:17.004Z,-1.41
2023-01-15T06:20:44.018Z,-1.41
2023-01-15T06:23:10.979Z,-1.40
2023-01-15T06:25:38.036Z,-1.41
2023-01-15T06:28:05.432Z,-1.42
2023-01-15T06:30:32.889Z,-1.41
2023-01-15T06:32:59.832Z,-1.40
2023-01-15T06:35:26.797Z,-1.40
2023-01-15T06:37:53.710Z,-1.40
2023-01-15T06:40:20.698Z,-1.37
2023-01-15T06:43:06.259Z,-1.37
2023-01-15T06:46:01.054Z,-1.37
2023-01-15T06:48:28.078Z,-1.38
2023-01-15T06:50:54.972Z,-1.37
2023-01-15T06:53:21.949Z,-1.34
2023-01-15T06:55:48.950Z,-1.32
2023-01-15T10:27:48.890Z,-0.45
2023-01-15T10:30:24.942Z,-0.36
2023-01-15T10:33:03.595Z,-0.35
2023-01-15T10:35:35.045Z,-0.35
2023-01-15T10:38:28.550Z,-0.35
2023-01-15T10:41:17.372Z,-0.36
2023-01-15T10:43:49.263Z,-0.35
2023-01-15T10:46:38.492Z,-0.34
2023-01-15T10:49:13.672Z,-0.33
2023-01-15T10:52:04.574Z,-0.32
2023-01-15T10:54:42.792Z,-0.31
2023-01-15T10:57:16.646Z,-0.31
2023-01-15T10:59:52.840Z,-0.30
2023-01-15T11:02:19.960Z,-0.29
2023-01-15T11:04:46.993Z,-0.26
2023-01-15T11:07:14.223Z,-0.25
2023-01-15T11:09:41.596Z,-0.22
2023-01-15T11:12:27.003Z,-0.18
2023-01-15T11:15:12.499Z,-0.14
2023-01-15T11:18:02.567Z,-0.12
2023-01-15T11:20:45.759Z,-0.13
2023-01-15T11:23:14.747Z,-0.14
2023-01-15T11:25:52.551Z,-0.16
2023-01-15T11:28:30.029Z,-0.15
2023-01-15T11:30:57.072Z,-0.14
2023-01-15T11:33:26.867Z,-0.13
2023-01-15T11:35:58.877Z,-0.14
2023-01-15T11:38:30.212Z,-0.14
2023-01-15T11:40:59.900Z,-0.15
2023-01-15T11:43:46.907Z,-0.15
2023-01-15T11:46:49.466Z,-0.15
2023-01-15T11:49:36.415Z,-0.16
2023-01-15T11:52:05.238Z,-0.16
2023-01-15T11:54:32.976Z,-0.15
2023-01-15T11:56:59.929Z,-0.14
2023-01-15T11:59:27.091Z,-0.12
2023-01-15T12:02:00.038Z,-0.11
2023-01-15T12:04:31.544Z,-0.10
2023-01-15T12:06:59.261Z,-0.09
2023-01-15T12:09:54.232Z,-0.09
2023-01-15T12:12:41.082Z,-0.08
2023-01-15T12:15:26.606Z,-0.09
2023-01-15T12:18:08.798Z,-0.09
2023-01-15T12:21:00.894Z,-0.09
2023-01-15T12:24:01.933Z,-0.12
2023-01-15T12:26:38.736Z,-0.13
2023-01-15T12:29:07.195Z,-0.14
2023-01-15T12:31:40.569Z,-0.16
2023-01-15T12:34:28.631Z,-0.18
2023-01-15T12:37:06.818Z,-0.18
2023-01-15T12:39:46.636Z,-0.18
2023-01-15T12:42:34.713Z,-0.17
2023-01-15T12:45:07.950Z,-0.19
2023-01-15T12:48:03.687Z,-0.20
2023-01-15T12:50:45.335Z,-0.21
2023-01-15T12:53:12.311Z,-0.21
2023-01-15T12:55:42.938Z,-0.21
2023-01-15T12:58:27.093Z,-0.24
2023-01-15T13:01:01.205Z,-0.25
2023-01-15T13:03:30.546Z,-0.25
2023-01-15T13:06:02.793Z,-0.27
2023-01-15T13:08:38.887Z,-0.29
2023-01-15T13:11:07.508Z,-0.30
2023-01-15T13:13:36.568Z,-0.32
2023-01-15T13:16:17.285Z,-0.31
2023-01-15T13:18:50.745Z,-0.28
2023-01-15T13:21:18.455Z,-0.28
2023-01-15T13:23:57.608Z,-0.30
2023-01-15T13:27:15.767Z,-0.30
2023-01-15T13:29:45.653Z,-0.30
2023-01-15T13:32:17.258Z,-0.31
2023-01-15T13:34:46.490Z,-0.32
2023-01-15T13:37:25.059Z,-0.35
2023-01-15T13:39:54.001Z,-0.40
2023-01-15T13:42:35.443Z,-0.42
2023-01-15T13:45:28.088Z,-0.44
2023-01-15T13:48:05.793Z,-0.47
2023-01-15T13:50:38.173Z,-0.52
2023-01-15T13:53:13.974Z,-0.55
2023-01-15T13:55:42.320Z,-0.56
2023-01-15T13:58:24.514Z,-0.56
2023-01-15T14:01:17.897Z,-0.56
2023-01-15T14:04:04.000Z,-0.58
2023-01-15T14:06:44.002Z,-0.60
2023-01-15T14:09:26.414Z,-0.62
2023-01-15T14:12:02.945Z,-0.64
2023-01-15T14:14:45.201Z,-0.65
2023-01-15T14:17:57.761Z,-0.67
2023-01-15T14:20:34.169Z,-0.67
2023-01-15T14:23:16.860Z,-0.68
2023-01-15T14:26:05.204Z,-0.69
2023-01-15T14:28:54.114Z,-0.70
2023-01-15T14:31:42.979Z,-0.70
2023-01-15T14:34:14.217Z,-0.72
2023-01-15T14:36:51.544Z,-0.74
2023-01-15T14:39:31.791Z,-0.75
2023-01-15T14:42:19.415Z,-0.76
2023-01-15T14:44:46.483Z,-0.76
2023-01-15T14:47:33.814Z,-0.76
2023-01-15T14:50:38.559Z,-0.76
2023-01-15T14:53:11.538Z,-0.77
2023-01-15T14:55:44.264Z,-0.76
2023-01-15T14:58:48.503Z,-0.75
2023-01-15T15:01:21.648Z,-0.75
2023-01-15T15:03:58.092Z,-0.74
2023-01-15T15:06:26.601Z,-0.73
2023-01-15T15:08:55.545Z,-0.74
2023-01-15T15:11:43.987Z,-0.75
2023-01-15T15:14:11.826Z,-0.77
2023-01-15T15:16:43.965Z,-0.75
2023-01-15T15:19:26.231Z,-0.75
2023-01-15T15:21:53.169Z,-0.77
2023-01-15T15:24:24.563Z,-0.77
2023-01-15T15:26:51.554Z,-0.76
2023-01-15T15:29:20.206Z,-0.77
2023-01-15T15:31:49.483Z,-0.78
2023-01-15T15:34:22.778Z,-0.78
2023-01-15T15:36:49.765Z,-0.80
2023-01-15T15:39:24.694Z,-0.80
2023-01-15T15:42:10.120Z,-0.81
2023-01-15T15:45:14.875Z,-0.79
2023-01-15T15:48:01.035Z,-0.78
2023-01-15T15:50:33.146Z,-0.77
2023-01-15T15:53:04.482Z,-0.75
2023-01-15T15:55:39.486Z,-0.75
2023-01-15T15:58:06.479Z,-0.75
2023-01-15T16:00:34.937Z,-0.75
2023-01-15T16:03:05.891Z,-0.75
2023-01-15T16:05:33.122Z,-0.73
2023-01-15T16:08:16.800Z,-0.72
2023-01-15T16:10:43.911Z,-0.71
2023-01-15T16:13:23.152Z,-0.70
2023-01-15T16:15:55.905Z,-0.72
2023-01-15T16:18:28.159Z,-0.75
2023-01-15T16:20:55.127Z,-0.76
2023-01-15T16:23:29.741Z,-0.77
2023-01-15T16:26:01.460Z,-0.77
2023-01-15T16:28:36.310Z,-0.77
2023-01-15T16:31:03.692Z,-0.78
2023-01-15T16:33:30.698Z,-0.79
2023-01-15T16:35:58.560Z,-0.82
2023-01-15T16:38:25.697Z,-0.83
2023-01-15T16:40:52.656Z,-0.84
2023-01-15T16:43:24.701Z,-0.84
2023-01-15T16:46:16.826Z,-0.83
2023-01-15T16:48:48.135Z,-0.83
2023-01-15T16:51:27.155Z,-0.86
2023-01-15T16:53:54.210Z,-0.87
2023-01-15T16:56:37.711Z,-0.88
2023-01-15T16:59:06.203Z,-0.90
2023-01-15T17:01:42.447Z,-0.91
2023-01-15T17:04:28.510Z,-0.91
2023-01-15T17:07:14.892Z,-0.92
2023-01-15T17:09:50.362Z,-0.91
2023-01-15T17:12:42.297Z,-0.89
2023-01-15T17:15:15.610Z,-0.90
2023-01-15T17:17:46.165Z,-0.89
2023-01-15T17:20:13.578Z,-0.89
2023-01-15T17:22:41.468Z,-0.91
2023-01-15T17:25:21.897Z,-0.90
2023-01-15T17:27:48.927Z,-0.90
2023-01-15T17:30:16.683Z,-0.92
2023-01-15T17:32:43.669Z,-0.94
2023-01-15T17:35:32.834Z,-0.94
2023-01-15T17:37:59.826Z,-0.96
2023-01-15T17:40:27.248Z,-0.97
2023-01-15T17:42:54.187Z,-0.97
2023-01-15T17:45:28.987Z,-0.98
2023-01-15T17:47:56.655Z,-0.97
2023-01-15T17:50:24.373Z,-0.96
2023-01-15T17:52:51.500Z,-0.95
2023-01-15T17:55:39.543Z,-0.93
2023-01-15T17:58:25.139Z,-0.94
2023-01-15T18:01:10.627Z,-0.94
2023-01-15T18:03:57.494Z,-0.94
2023-01-15T18:06:24.453Z,-0.96
2023-01-15T18:08:55.691Z,-0.96
2023-01-15T18:11:23.518Z,-0.97
2023-01-15T18:13:50.602Z,-0.99
2023-01-15T18:16:17.580Z,-1.01
2023-01-15T18:18:44.697Z,-1.02
2023-01-15T18:21:11.647Z,-1.01
2023-01-15T18:23:39.752Z,-1.02
2023-01-15T18:26:07.393Z,-1.01
2023-01-15T18:28:35.351Z,-1.01
2023-01-15T18:31:02.975Z,-0.99
2023-01-15T18:33:30.167Z,-0.98
2023-01-15T18:36:13.865Z,-0.99
2023-01-15T18:38:43.890Z,-1.00
2023-01-15T18:41:36.124Z,-1.01
2023-01-15T18:44:26.485Z,-1.01
2023-01-15T18:46:58.792Z,-1.03
2023-01-15T18:49:26.201Z,-1.07
2023-01-15T18:52:11.756Z,-1.10
2023-01-15T18:54:38.801Z,-1.11
2023-01-15T18:57:05.863Z,-1.13
2023-01-15T18:59:33.614Z,-1.12
2023-01-15T19:02:00.757Z,-1.11
2023-01-15T19:04:27.940Z,-1.11
2023-01-15T19:06:54.952Z,-1.12
2023-01-15T19:09:24.324Z,-1.13
2023-01-15T19:11:52.189Z,-1.16
2023-01-15T19:14:38.299Z,-1.18
2023-01-15T19:17:23.819Z,-1.18
2023-01-15T19:19:50.877Z,-1.19
2023-01-15T19:22:36.224Z,-1.20
2023-01-15T19:25:03.322Z,-1.20
2023-01-15T19:27:30.281Z,-1.21
2023-01-15T19:29:58.323Z,-1.20
2023-01-15T19:32:25.279Z,-1.20
2023-01-15T19:34:53.218Z,-1.21
2023-01-15T19:37:21.152Z,-1.21
2023-01-15T19:39:48.129Z,-1.20
2023-01-15T19:42:33.599Z,-1.19
2023-01-15T19:45:19.146Z,-1.17
2023-01-15T19:48:04.779Z,-1.17
2023-01-15T19:50:35.645Z,-1.17
2023-01-15T19:53:02.783Z,-1.16
2023-01-15T19:55:30.039Z,-1.15
2023-01-15T19:58:01.353Z,-1.14
2023-01-15T20:00:28.620Z,-1.14
2023-01-15T20:02:56.537Z,-1.14
2023-01-15T20:05:24.124Z,-1.14
2023-01-15T20:07:51.086Z,-1.15
2023-01-15T20:10:19.684Z,-1.15
2023-01-15T20:13:05.210Z,-1.15
2023-01-15T20:15:32.391Z,-1.15
2023-01-15T20:17:59.668Z,-1.16
2023-01-15T20:20:26.685Z,-1.16
2023-01-15T20:22:56.678Z,-1.17
2023-01-15T20:25:26.619Z,-1.17
2023-01-15T20:27:54.265Z,-1.16
2023-01-15T20:30:24.631Z,-1.16
2023-01-15T20:32:53.056Z,-1.17
2023-01-15T20:35:22.605Z,-1.18
2023-01-15T20:37:50.338Z,-1.19
2023-01-15T20:40:20.950Z,-1.21
2023-01-15T20:43:06.342Z,-1.22
2023-01-15T20:45:33.664Z,-1.23
2023-01-15T20:48:12.774Z,-1.23
2023-01-15T20:51:00.832Z,-1.22
2023-01-15T20:53:33.753Z,-1.20
2023-01-15T20:56:01.909Z,-1.21
2023-01-15T20:58:28.996Z,-1.21
2023-01-15T21:01:02.215Z,-1.23
2023-01-15T21:03:29.199Z,-1.23
2023-01-15T21:05:59.358Z,-1.25
2023-01-15T21:08:26.825Z,-1.27
2023-01-15T21:10:54.309Z,-1.28
2023-01-15T21:13:23.024Z,-1.28
2023-01-15T21:15:58.243Z,-1.28
2023-01-15T21:18:26.419Z,-1.30
2023-01-15T21:20:53.575Z,-1.34
2023-01-15T21:23:20.939Z,-1.36
2023-01-15T21:25:48.004Z,-1.37
2023-01-15T21:28:15.238Z,-1.37
2023-01-15T21:30:42.562Z,-1.35
2023-01-15T21:33:11.355Z,-1.35
2023-01-15T21:35:40.278Z,-1.35
2023-01-15T21:38:08.279Z,-1.34
2023-01-15T21:40:38.522Z,-1.34
2023-01-15T21:43:24.559Z,-1.31
2023-01-15T21:45:51.782Z,-1.30
2023-01-15T21:48:18.907Z,-1.28
2023-01-15T21:50:45.941Z,-1.29
2023-01-15T21:53:12.905Z,-1.29
2023-01-15T21:55:39.869Z,-1.29
2023-01-15T21:58:06.847Z,-1.29
2023-01-15T22:00:33.847Z,-1.29
